Time;durP1;ratioP1;P1;durP2;ratioP2;P2;SDS_P1;SDS_P2;PMS_P1;PMS_P2;Temp;Humidity;BMP_temperature;BMP_pressure;BME280_temperature;BME280_humidity;BME280_pressure;Samples;Min_cycle;Max_cycle;Signal;HPM_P1;HPM_P2
2023/05/07 00:00:22;;;;;;;20.00;11.50;;;;;;;41.83;35.06;100934.69;5093920;28;20425;-80
2023/05/07 00:02:48;;;;;;;19.70;11.87;;;;;;;41.76;35.19;100937.16;5093717;28;20202;-80
2023/05/07 00:08:36;;;;;;;35.87;18.10;;;;;;;41.72;35.21;100939.69;5094965;28;20794;-82
2023/05/07 00:11:02;;;;;;;42.07;18.37;;;;;;;41.76;34.85;100946.13;5093761;28;20429;-83
2023/05/07 00:13:30;;;;;;;32.60;19.60;;;;;;;41.69;35.11;100943.09;5093595;28;20463;-83
2023/05/07 00:15:56;;;;;;;29.07;21.00;;;;;;;41.55;35.19;100937.09;5095069;28;20437;-82
2023/05/07 00:18:22;;;;;;;42.27;31.97;;;;;;;41.53;35.32;100944.78;5093736;28;20997;-83
2023/05/07 00:20:48;;;;;;;50.90;34.43;;;;;;;41.51;34.88;100941.63;5093535;28;20206;-83
2023/05/07 00:23:14;;;;;;;42.20;33.83;;;;;;;41.53;35.12;100942.06;5093290;28;20634;-82
2023/05/07 00:25:40;;;;;;;56.33;34.47;;;;;;;41.46;35.11;100934.44;5093349;28;20217;-83
2023/05/07 00:28:06;;;;;;;42.40;33.83;;;;;;;41.37;35.37;100930.94;5093235;28;20639;-82
2023/05/07 00:30:32;;;;;;;57.83;34.30;;;;;;;41.38;35.06;100915.44;5093073;28;20210;-80
2023/05/07 00:32:58;;;;;;;50.53;36.30;;;;;;;41.39;34.63;100914.28;5093267;28;20912;-80
2023/05/07 00:35:24;;;;;;;50.10;40.67;;;;;;;41.43;34.29;100910.56;5094347;28;20483;-80
2023/05/07 00:37:50;;;;;;;55.50;45.00;;;;;;;41.39;34.35;100897.97;5093152;28;20186;-80
2023/05/07 00:40:16;;;;;;;66.00;46.37;;;;;;;41.41;34.51;100895.69;5094198;28;20478;-80
2023/05/07 00:42:46;;;;;;;67.53;49.40;;;;;;;41.35;35.07;100884.19;5092915;28;20429;-81
2023/05/07 00:45:14;;;;;;;58.87;50.23;;;;;;;41.45;34.36;100883.81;5092876;28;20427;-81
2023/05/07 00:47:40;;;;;;;62.97;48.70;;;;;;;41.43;34.13;100874.38;5092939;28;20442;-81
2023/05/07 00:50:08;;;;;;;49.47;40.17;;;;;;;41.35;34.03;100876.03;5094643;28;20461;-81
2023/05/07 00:52:34;;;;;;;52.20;38.47;;;;;;;41.21;34.30;100867.28;5092856;28;20494;-81
2023/05/07 00:55:05;;;;;;;55.77;37.30;;;;;;;41.21;34.20;100865.38;5092647;28;20453;-81
2023/05/07 00:57:36;;;;;;;49.97;36.13;;;;;;;41.27;33.94;100858.59;5092830;28;20421;-81
2023/05/07 01:00:04;;;;;;;50.13;33.77;;;;;;;41.32;34.09;100860.34;5092679;28;20931;-81
2023/05/07 01:02:30;;;;;;;44.70;33.10;;;;;;;41.14;33.95;100858.84;5092685;28;20477;-80
2023/05/07 01:04:57;;;;;;;48.93;34.70;;;;;;;41.06;34.02;100855.03;5092638;28;20405;-80
2023/05/07 01:07:23;;;;;;;55.37;35.13;;;;;;;41.12;34.38;100853.72;5092547;28;20913;-80
2023/05/07 01:09:49;;;;;;;55.00;32.17;;;;;;;41.16;34.20;100846.50;5092464;28;20413;-80
2023/05/07 01:12:16;;;;;;;60.63;38.53;;;;;;;41.12;34.27;100847.47;5092434;28;20466;-80
2023/05/07 01:14:42;;;;;;;51.00;40.30;;;;;;;41.19;34.21;100854.00;5092352;28;20946;-80
2023/05/07 01:17:08;;;;;;;56.10;39.67;;;;;;;41.14;34.38;100850.69;5092617;28;20413;-80
2023/05/07 01:19:34;;;;;;;55.10;36.70;;;;;;;41.10;34.70;100850.53;5092322;28;20417;-80
2023/05/07 01:22:07;;;;;;;52.37;35.47;;;;;;;41.06;34.36;100847.66;5093577;28;20413;-80
2023/05/07 01:24:36;;;;;;;49.80;30.67;;;;;;;41.10;34.42;100847.00;5092200;28;20441;-80
2023/05/07 01:27:02;;;;;;;36.83;27.33;;;;;;;41.06;34.19;100847.66;5092159;28;20420;-80
2023/05/07 01:29:28;;;;;;;38.40;24.87;;;;;;;40.87;34.37;100836.38;5092631;28;20447;-80
2023/05/07 01:31:58;;;;;;;41.70;27.00;;;;;;;41.03;34.20;100844.81;5092101;28;20421;-80
2023/05/07 01:34:27;;;;;;;39.10;25.70;;;;;;;41.04;34.00;100832.78;5091343;28;20843;-80
2023/05/07 01:36:55;;;;;;;37.03;23.37;;;;;;;41.04;34.58;100840.97;5091937;28;20921;-80
2023/05/07 01:39:27;;;;;;;32.03;24.50;;;;;;;41.01;34.37;100838.91;5091993;28;20421;-80
2023/05/07 01:41:56;;;;;;;42.37;22.33;;;;;;;41.05;34.09;100840.63;5091939;28;20409;-80
2023/05/07 01:44:23;;;;;;;43.60;27.17;;;;;;;41.05;34.47;100848.78;5091989;28;20455;-80
2023/05/07 01:46:49;;;;;;;34.40;27.23;;;;;;;40.93;34.22;100843.25;5091772;28;20451;-80
2023/05/07 01:49:16;;;;;;;34.27;27.80;;;;;;;40.96;34.50;100837.16;5091902;28;20424;-80
2023/05/07 01:51:43;;;;;;;35.30;26.00;;;;;;;40.86;34.61;100839.41;5091747;28;20412;-80
2023/05/07 01:54:09;;;;;;;54.03;27.73;;;;;;;40.93;34.37;100837.81;5091582;28;20850;-80
2023/05/07 01:56:35;;;;;;;35.43;26.57;;;;;;;40.90;34.29;100840.38;5093231;28;20445;-80
2023/05/07 01:59:01;;;;;;;30.70;24.30;;;;;;;40.97;34.38;100840.69;5091683;28;20424;-80
2023/05/07 02:01:28;;;;;;;39.23;25.33;;;;;;;40.91;34.42;100839.28;5091758;28;20920;-80
2023/05/07 02:03:54;;;;;;;35.80;25.23;;;;;;;40.81;34.49;100835.75;5091609;28;20528;-80
2023/05/07 02:06:20;;;;;;;30.30;24.67;;;;;;;40.87;34.50;100832.84;5091548;28;20802;-80
2023/05/07 02:08:47;;;;;;;36.03;26.17;;;;;;;40.96;34.42;100829.00;5091619;28;20429;-80
2023/05/07 02:11:13;;;;;;;30.03;25.30;;;;;;;40.80;34.57;100826.00;5091476;28;21032;-80
2023/05/07 02:13:39;;;;;;;38.50;28.63;;;;;;;40.84;34.66;100823.44;5091644;28;20460;-80
2023/05/07 02:16:05;;;;;;;34.73;24.97;;;;;;;40.77;34.70;100823.16;5091394;28;20291;-83
2023/05/07 02:18:31;;;;;;;35.37;27.50;;;;;;;40.73;34.78;100828.44;5091431;28;20222;-82
2023/05/07 02:20:57;;;;;;;34.37;24.37;;;;;;;40.76;35.11;100821.53;5091473;28;20428;-82
2023/05/07 02:23:23;;;;;;;31.80;23.70;;;;;;;40.55;35.26;100816.03;5092825;28;20444;-83
2023/05/07 02:25:49;;;;;;;43.03;25.00;;;;;;;40.57;35.15;100816.50;5093034;28;20398;-82
2023/05/07 02:28:15;;;;;;;30.63;24.77;;;;;;;40.60;35.25;100817.78;5091337;28;20440;-82
2023/05/07 02:30:41;;;;;;;35.77;22.90;;;;;;;40.65;35.18;100823.03;5091210;28;20433;-80
2023/05/07 02:33:08;;;;;;;41.93;25.43;;;;;;;40.68;35.19;100806.84;5091356;28;20413;-80
2023/05/07 02:35:34;;;;;;;38.30;26.60;;;;;;;40.61;34.90;100811.22;5090978;28;20503;-80
2023/05/07 02:38:00;;;;;;;30.40;24.87;;;;;;;40.57;35.15;100823.84;5091288;28;20416;-80
2023/05/07 02:40:26;;;;;;;31.63;24.73;;;;;;;40.42;35.33;100823.25;5091213;28;20534;-80
2023/05/07 02:42:52;;;;;;;28.33;22.90;;;;;;;40.51;35.55;100825.94;5090970;28;20658;-80
2023/05/07 02:45:18;;;;;;;35.63;22.57;;;;;;;40.37;35.75;100828.06;5092017;28;20448;-80
2023/05/07 02:47:44;;;;;;;29.83;20.53;;;;;;;40.35;35.92;100831.09;5095110;28;20181;-80
2023/05/07 02:50:10;;;;;;;32.40;21.57;;;;;;;40.39;35.37;100821.19;5095217;28;20451;-80
2023/05/07 02:52:36;;;;;;;24.40;19.07;;;;;;;40.43;35.49;100821.31;5095254;28;20421;-80
2023/05/07 02:55:02;;;;;;;27.67;20.20;;;;;;;40.46;35.32;100824.19;5095538;28;20548;-80
2023/05/07 02:57:28;;;;;;;26.27;19.20;;;;;;;40.36;35.91;100831.91;5095090;28;20424;-80
2023/05/07 02:59:54;;;;;;;23.77;19.53;;;;;;;40.28;35.99;100828.88;5095382;28;20808;-80
2023/05/07 03:02:20;;;;;;;25.03;18.20;;;;;;;40.18;36.12;100828.41;5095002;28;20178;-81
2023/05/07 03:04:46;;;;;;;22.03;15.97;;;;;;;40.32;36.17;100828.22;5095189;28;20774;-81
2023/05/07 03:07:12;;;;;;;19.90;15.80;;;;;;;40.29;35.95;100825.03;5094882;28;20178;-80
2023/05/07 03:09:38;;;;;;;20.40;15.90;;;;;;;40.22;36.14;100819.31;5095253;28;20467;-81
2023/05/07 03:12:04;;;;;;;23.50;17.10;;;;;;;40.24;36.23;100824.41;5095094;28;20193;-80
2023/05/07 03:14:30;;;;;;;27.40;17.30;;;;;;;40.11;36.45;100826.19;5094679;28;20582;-80
2023/05/07 03:16:56;;;;;;;21.27;14.43;;;;;;;40.03;36.15;100821.53;5096172;28;20916;-80
2023/05/07 03:19:22;;;;;;;27.43;15.50;;;;;;;39.99;36.29;100828.72;5094656;28;20413;-80
2023/05/07 03:21:48;;;;;;;20.30;13.33;;;;;;;40.13;35.87;100823.16;5094684;28;20836;-80
2023/05/07 03:24:14;;;;;;;21.43;13.53;;;;;;;40.08;35.95;100821.38;5094680;28;20524;-80
2023/05/07 03:26:40;;;;;;;23.83;16.30;;;;;;;40.13;36.23;100837.53;5094520;28;20500;-80
2023/05/07 03:29:06;;;;;;;26.00;15.90;;;;;;;40.29;35.88;100837.81;5094700;28;20444;-80
2023/05/07 03:31:32;;;;;;;18.87;14.57;;;;;;;40.08;36.12;100850.47;5094448;28;20263;-80
2023/05/07 03:33:58;;;;;;;27.07;13.20;;;;;;;40.13;36.05;100853.03;5094393;28;20617;-80
2023/05/07 03:36:26;;;;;;;20.80;13.80;;;;;;;39.94;36.42;100856.06;5094458;28;20424;-80
2023/05/07 03:38:52;;;;;;;23.40;14.13;;;;;;;39.91;36.31;100857.50;5094214;28;20417;-80
2023/05/07 03:41:18;;;;;;;24.10;14.17;;;;;;;40.08;36.01;100864.06;5095799;28;20550;-80
2023/05/07 03:43:44;;;;;;;22.30;13.10;;;;;;;40.09;36.34;100860.25;5094242;28;20421;-80
2023/05/07 03:46:10;;;;;;;19.13;11.73;;;;;;;40.13;35.99;100864.69;5095811;28;20408;-81
2023/05/07 03:48:36;;;;;;;22.07;14.20;;;;;;;40.09;36.11;100866.47;5094068;28;20448;-80
2023/05/07 03:51:02;;;;;;;21.50;13.03;;;;;;;40.04;35.84;100866.63;5094040;28;20182;-80
2023/05/07 03:53:28;;;;;;;23.77;15.10;;;;;;;40.09;36.24;100871.91;5093916;28;20206;-80
2023/05/07 03:55:53;;;;;;;25.87;12.80;;;;;;;40.12;36.18;100878.59;5093608;28;20478;-80
2023/05/07 03:58:19;;;;;;;20.43;14.80;;;;;;;40.03;36.18;100873.97;5093716;28;20456;-80
2023/05/07 04:00:45;;;;;;;20.93;15.40;;;;;;;40.03;36.15;100876.69;5093982;28;20936;-80
2023/05/07 04:03:11;;;;;;;24.07;14.80;;;;;;;40.03;36.43;100881.31;5094339;28;20524;-80
2023/05/07 04:05:37;;;;;;;29.63;14.90;;;;;;;39.92;36.62;100886.25;5093733;28;20445;-80
2023/05/07 04:08:03;;;;;;;22.10;14.43;;;;;;;40.09;36.05;100880.06;5094052;28;20298;-80
2023/05/07 04:10:29;;;;;;;25.03;15.50;;;;;;;40.01;36.14;100888.97;5093610;28;20199;-80
2023/05/07 04:12:56;;;;;;;22.30;12.87;;;;;;;40.05;36.35;100886.44;5093649;28;20424;-80
2023/05/07 04:15:23;;;;;;;17.77;13.87;;;;;;;40.14;36.34;100889.94;5093396;28;20586;-80
2023/05/07 04:17:49;;;;;;;20.90;12.83;;;;;;;40.05;36.15;100889.97;5095497;28;20473;-80
2023/05/07 04:20:17;;;;;;;27.77;16.33;;;;;;;40.07;36.06;100890.44;5093468;28;20512;-80
2023/05/07 04:22:43;;;;;;;29.37;16.93;;;;;;;39.95;36.52;100893.75;5093267;28;20500;-80
2023/05/07 04:25:10;;;;;;;22.30;12.00;;;;;;;39.93;36.21;100892.50;5093660;28;20567;-80
2023/05/07 04:27:36;;;;;;;18.50;12.60;;;;;;;39.80;36.56;100890.72;5093384;28;20445;-80
2023/05/07 04:30:02;;;;;;;17.57;11.30;;;;;;;39.93;36.45;100892.50;5093562;28;20436;-80
2023/05/07 04:32:29;;;;;;;18.80;10.10;;;;;;;39.90;36.58;100891.22;5093225;28;20430;-80
2023/05/07 04:34:58;;;;;;;15.87;9.77;;;;;;;39.83;36.57;100888.16;5092801;28;20472;-80
2023/05/07 04:37:26;;;;;;;26.33;12.67;;;;;;;39.95;36.38;100887.53;5093147;28;20429;-80
2023/05/07 04:39:52;;;;;;;19.20;11.93;;;;;;;39.99;35.83;100885.78;5092997;28;20417;-80
2023/05/07 04:42:18;;;;;;;17.00;9.73;;;;;;;39.82;36.29;100892.00;5093384;28;20417;-80
2023/05/07 04:44:45;;;;;;;24.00;10.00;;;;;;;39.92;36.14;100890.91;5093112;28;20932;-80
2023/05/07 04:47:11;;;;;;;15.47;9.63;;;;;;;39.97;35.71;100894.25;5092977;28;20421;-80
2023/05/07 04:49:38;;;;;;;23.50;11.30;;;;;;;39.81;36.22;100908.63;5092548;28;20409;-80
2023/05/07 04:52:04;;;;;;;24.00;11.30;;;;;;;40.01;36.41;100897.13;5092748;28;20816;-80
2023/05/07 04:54:30;;;;;;;22.47;11.53;;;;;;;39.85;36.16;100894.09;5092831;28;20964;-80
2023/05/07 04:56:56;;;;;;;16.27;11.80;;;;;;;39.94;36.01;100900.31;5089063;28;20417;-80
2023/05/07 04:59:22;;;;;;;16.70;12.57;;;;;;;40.07;35.86;100898.59;5080416;28;20516;-80
2023/05/07 05:01:48;;;;;;;23.37;12.83;;;;;;;40.00;35.83;100898.25;5092695;28;20508;-80
2023/05/07 05:04:14;;;;;;;26.60;16.07;;;;;;;39.89;35.95;100900.47;5092827;28;20452;-80
2023/05/07 05:06:40;;;;;;;22.27;13.40;;;;;;;39.95;36.11;100901.09;5092703;28;20721;-80
2023/05/07 05:09:07;;;;;;;24.60;15.07;;;;;;;40.01;36.08;100902.53;5092950;28;20175;-80
2023/05/07 05:11:33;;;;;;;25.83;13.53;;;;;;;39.91;36.25;100911.03;5092764;28;20405;-80
2023/05/07 05:14:00;;;;;;;27.37;12.57;;;;;;;39.97;35.95;100912.47;5092383;28;20456;-80
2023/05/07 05:16:26;;;;;;;24.83;14.00;;;;;;;39.87;36.26;100923.66;5092456;28;20474;-80
2023/05/07 05:18:53;;;;;;;26.63;12.57;;;;;;;39.99;36.02;100913.75;5092356;28;20424;-80
2023/05/07 05:21:20;;;;;;;27.53;13.10;;;;;;;40.06;35.84;100921.44;5092411;28;20413;-81
2023/05/07 05:23:47;;;;;;;24.67;14.40;;;;;;;40.05;35.95;100929.91;5092271;28;20409;-80
2023/05/07 05:26:13;;;;;;;22.50;13.47;;;;;;;40.08;35.94;100926.56;5092295;28;20809;-80
2023/05/07 05:28:39;;;;;;;27.33;14.83;;;;;;;40.08;35.44;100932.78;5092006;28;20501;-82
2023/05/07 05:31:05;;;;;;;33.87;14.27;;;;;;;40.09;35.74;100933.59;5092164;28;21039;-82
2023/05/07 05:33:31;;;;;;;30.13;16.30;;;;;;;40.14;35.68;100939.66;5092117;28;20424;-81
2023/05/07 05:35:57;;;;;;;39.03;16.50;;;;;;;40.09;35.67;100931.69;5091725;28;20488;-82
2023/05/07 05:38:23;;;;;;;29.30;18.43;;;;;;;40.10;35.55;100933.28;5091918;28;20481;-82
2023/05/07 05:40:49;;;;;;;41.43;23.27;;;;;;;40.15;35.72;100943.19;5091850;28;20610;-82
2023/05/07 05:43:15;;;;;;;26.03;20.80;;;;;;;40.11;35.49;100937.59;5092048;28;20433;-82
2023/05/07 05:45:41;;;;;;;31.87;16.10;;;;;;;40.18;35.82;100943.34;5091831;28;20436;-82
2023/05/07 05:48:08;;;;;;;19.07;12.97;;;;;;;40.16;35.64;100948.31;5091900;28;20463;-82
2023/05/07 05:50:36;;;;;;;20.93;13.20;;;;;;;40.14;35.58;100947.81;5091834;28;20429;-82
2023/05/07 05:53:02;;;;;;;24.87;12.70;;;;;;;40.19;35.79;100950.38;5091786;28;20455;-82
2023/05/07 05:55:28;;;;;;;20.23;13.00;;;;;;;40.20;35.92;100951.16;5091739;28;20530;-82
2023/05/07 05:57:54;;;;;;;24.40;12.13;;;;;;;40.15;35.43;100945.91;5092915;28;20833;-81
2023/05/07 06:00:22;;;;;;;24.80;11.70;;;;;;;40.02;35.75;100953.03;5091588;28;21038;-82
2023/05/07 06:02:48;;;;;;;20.60;11.50;;;;;;;40.07;35.91;100968.44;5091691;28;20412;-82
2023/05/07 06:05:14;;;;;;;21.60;11.73;;;;;;;40.05;35.96;100957.88;5091430;28;20416;-82
2023/05/07 06:07:40;;;;;;;19.63;10.80;;;;;;;40.08;36.19;100964.59;5091626;28;20424;-82
2023/05/07 06:10:07;;;;;;;28.17;13.70;;;;;;;40.09;36.19;100971.66;5091341;28;20413;-82
2023/05/07 06:12:33;;;;;;;31.30;17.40;;;;;;;40.09;35.97;100972.44;5091518;28;20481;-82
2023/05/07 06:14:59;;;;;;;27.87;15.97;;;;;;;40.14;35.83;100980.41;5093007;28;20445;-82
2023/05/07 06:17:25;;;;;;;32.80;19.83;;;;;;;40.17;36.18;100985.22;5091467;28;20825;-82
2023/05/07 06:19:52;;;;;;;23.03;15.07;;;;;;;40.12;35.88;100992.72;5091408;28;20975;-82
2023/05/07 06:22:18;;;;;;;23.13;12.23;;;;;;;40.06;35.81;100988.56;5091397;28;20424;-82
2023/05/07 06:24:44;;;;;;;26.20;17.07;;;;;;;40.06;36.01;100994.00;5092930;28;20393;-82
2023/05/07 06:27:10;;;;;;;26.80;14.40;;;;;;;40.19;35.56;100999.28;5091361;28;20470;-82
2023/05/07 06:29:36;;;;;;;26.97;15.57;;;;;;;40.19;36.16;100993.06;5091504;28;20436;-82
2023/05/07 06:32:13;;;;;;;23.47;14.83;;;;;;;40.15;35.91;101001.06;5091328;28;20501;-82
2023/05/07 06:34:39;;;;;;;34.07;16.57;;;;;;;40.24;35.79;101001.06;5091146;28;20519;-82
2023/05/07 06:37:06;;;;;;;29.80;17.30;;;;;;;40.18;35.74;101008.56;5074417;28;20445;-82
2023/05/07 06:39:32;;;;;;;29.13;16.30;;;;;;;40.18;35.98;101011.28;5091196;28;20913;-82
2023/05/07 06:41:59;;;;;;;32.10;17.70;;;;;;;40.19;35.85;101012.88;5091084;28;20421;-82
2023/05/07 06:44:25;;;;;;;25.43;14.83;;;;;;;40.20;36.33;101016.38;5091271;28;20416;-82
2023/05/07 06:46:51;;;;;;;25.60;18.00;;;;;;;40.18;36.22;101016.72;5091084;28;20449;-80
2023/05/07 06:49:17;;;;;;;23.30;14.10;;;;;;;40.15;36.32;101022.78;5091017;28;20424;-80
2023/05/07 06:51:43;;;;;;;29.27;15.70;;;;;;;40.27;36.16;101016.75;5090303;28;20428;-80
2023/05/07 06:54:09;;;;;;;30.03;15.40;;;;;;;40.35;35.92;101023.28;5090782;28;20202;-80
2023/05/07 06:56:35;;;;;;;29.47;14.10;;;;;;;40.37;35.91;101013.69;5091022;28;20424;-80
2023/05/07 06:59:02;;;;;;;26.00;13.83;;;;;;;40.32;36.53;101030.16;5091477;28;20562;-80
2023/05/07 07:01:28;;;;;;;26.23;14.97;;;;;;;40.38;35.97;101036.22;5090754;28;20443;-80
2023/05/07 07:03:54;;;;;;;29.00;15.40;;;;;;;40.42;36.28;101034.47;5088915;28;20504;-80
2023/05/07 07:06:20;;;;;;;28.70;13.80;;;;;;;40.49;36.04;101040.25;5072576;28;20933;-80
2023/05/07 07:08:46;;;;;;;26.10;13.93;;;;;;;40.53;35.96;101043.94;5070627;28;20452;-80
2023/05/07 07:11:12;;;;;;;25.33;14.40;;;;;;;40.52;36.40;101037.72;5083906;28;20409;-80
2023/05/07 07:13:39;;;;;;;20.47;13.70;;;;;;;40.63;35.94;101043.59;5092212;28;20177;-80
2023/05/07 07:16:06;;;;;;;25.10;14.80;;;;;;;40.67;36.02;101050.00;5092309;28;20203;-80
2023/05/07 07:18:32;;;;;;;26.23;14.63;;;;;;;40.66;36.03;101047.63;5073966;28;20419;-80
2023/05/07 07:20:58;;;;;;;26.87;13.13;;;;;;;40.70;36.34;101046.66;5092117;28;20527;-81
2023/05/07 07:23:24;;;;;;;32.10;15.27;;;;;;;40.74;36.45;101042.16;5092497;28;20500;-80
2023/05/07 07:25:50;;;;;;;34.07;19.13;;;;;;;40.75;36.69;101049.19;5090609;28;20203;-81
2023/05/07 07:28:17;;;;;;;24.00;15.30;;;;;;;40.76;36.60;101045.38;5090916;28;21088;-80
2023/05/07 07:30:44;;;;;;;24.20;14.20;;;;;;;40.73;36.55;101050.66;5090441;28;20447;-80
2023/05/07 07:33:09;;;;;;;27.43;16.50;;;;;;;40.79;37.10;101049.38;5094008;28;20452;-80
2023/05/07 07:35:35;;;;;;;29.90;18.90;;;;;;;40.86;36.92;101055.13;5094228;28;20511;-80
2023/05/07 07:38:02;;;;;;;26.10;13.53;;;;;;;40.81;36.97;101053.34;5094087;28;20644;-80
2023/05/07 07:40:27;;;;;;;32.70;15.43;;;;;;;40.91;36.99;101057.72;5094102;28;20416;-80
2023/05/07 07:42:54;;;;;;;27.00;16.30;;;;;;;40.92;36.99;101058.50;5094504;28;20417;-80
2023/05/07 07:45:20;;;;;;;33.07;19.37;;;;;;;40.90;37.26;101055.28;5095748;28;20400;-79
2023/05/07 07:47:48;;;;;;;23.10;13.57;;;;;;;40.98;37.15;101057.22;5089720;28;20493;-81
2023/05/07 07:50:14;;;;;;;27.10;13.60;;;;;;;40.95;37.21;101057.88;5089600;28;20428;-81
2023/05/07 07:52:40;;;;;;;43.80;14.60;;;;;;;41.04;37.20;101073.03;5085788;28;20448;-80
2023/05/07 07:55:08;;;;;;;20.13;11.20;;;;;;;41.07;37.21;101066.97;5093202;28;20464;-80
2023/05/07 07:57:34;;;;;;;31.27;11.70;;;;;;;41.06;36.97;101070.00;5093597;28;20429;-81
2023/05/07 08:00:02;;;;;;;21.77;11.63;;;;;;;41.03;37.23;101079.63;5093111;28;20504;-82
2023/05/07 08:02:30;;;;;;;15.77;6.70;;;;;;;41.05;35.62;101082.81;5093729;28;20433;-83
2023/05/07 08:04:57;;;;;;;19.00;5.47;;;;;;;41.06;34.76;101080.88;5093586;28;20512;-81
2023/05/07 08:07:28;;;;;;;11.13;5.00;;;;;;;41.14;34.85;101076.56;5093724;28;20479;-80
2023/05/07 08:09:55;;;;;;;12.93;3.00;;;;;;;41.17;34.59;101081.34;5093819;28;20424;-80
2023/05/07 08:12:23;;;;;;;15.80;6.53;;;;;;;41.19;35.17;101084.53;5074706;28;20390;-79
2023/05/07 08:14:49;;;;;;;12.70;4.90;;;;;;;41.24;34.86;101081.66;5072729;28;20481;-79
2023/05/07 08:17:18;;;;;;;16.47;4.80;;;;;;;41.30;34.88;101089.31;5090176;28;20449;-80
2023/05/07 08:19:50;;;;;;;10.00;4.90;;;;;;;41.37;34.67;101088.84;5080160;28;20429;-86
2023/05/07 08:22:18;;;;;;;11.20;5.63;;;;;;;41.31;34.86;101081.94;5092787;28;20938;-87
2023/05/07 08:24:47;;;;;;;11.60;4.90;;;;;;;41.43;34.84;101090.25;5094745;28;20488;-84
2023/05/07 08:27:17;;;;;;;17.70;5.40;;;;;;;41.58;34.88;101097.91;5093383;28;20459;-84
2023/05/07 08:29:47;;;;;;;12.73;4.20;;;;;;;41.52;33.87;101092.97;5092850;28;20827;-86
2023/05/07 08:32:14;;;;;;;9.93;4.00;;;;;;;41.65;34.30;101107.50;5093260;28;20944;-84
2023/05/07 08:34:40;;;;;;;10.13;3.83;;;;;;;41.63;34.10;101102.38;5092197;28;20553;-79
2023/05/07 08:37:18;;;;;;;12.00;4.20;;;;;;;41.47;34.23;101095.88;5094260;28;20423;-81
2023/05/07 08:39:43;;;;;;;9.17;3.80;;;;;;;41.63;34.64;101109.75;5094509;28;20930;-81
2023/05/07 08:42:11;;;;;;;20.27;3.60;;;;;;;41.64;34.39;101103.97;5093205;28;20503;-81
2023/05/07 08:44:39;;;;;;;14.07;3.97;;;;;;;41.74;34.30;101110.97;5093668;28;20806;-84
2023/05/07 08:47:11;;;;;;;10.63;4.07;;;;;;;41.74;34.34;101114.56;5092331;28;20417;-82
2023/05/07 08:49:37;;;;;;;10.43;5.00;;;;;;;41.74;34.50;101103.66;5094320;28;20394;-82
2023/05/07 08:52:03;;;;;;;16.10;4.40;;;;;;;41.69;34.42;101108.47;5092774;28;20419;-82
2023/05/07 08:54:36;;;;;;;12.93;4.23;;;;;;;41.76;34.39;101115.03;5092045;28;21006;-84
2023/05/07 08:57:03;;;;;;;16.90;5.00;;;;;;;41.70;34.61;101112.78;5080980;28;20861;-80
2023/05/07 08:59:29;;;;;;;14.80;4.57;;;;;;;41.83;34.36;101109.06;5074562;28;20429;-81
2023/05/07 09:01:57;;;;;;;11.43;4.10;;;;;;;41.82;34.59;101108.25;5088617;28;20842;-80
2023/05/07 09:04:24;;;;;;;11.10;3.93;;;;;;;41.84;34.44;101110.66;5077211;28;20495;-81
2023/05/07 09:06:51;;;;;;;10.80;5.77;;;;;;;41.89;34.51;101112.41;5072355;28;20418;-80
2023/05/07 09:09:18;;;;;;;27.40;5.70;;;;;;;41.93;34.20;101107.88;5073529;28;20402;-82
2023/05/07 09:11:44;;;;;;;14.10;4.27;;;;;;;41.91;34.58;101104.69;5086518;28;20424;-82
2023/05/07 09:14:10;;;;;;;10.33;4.07;;;;;;;42.00;34.34;101111.69;5091518;28;20449;-82
2023/05/07 09:16:37;;;;;;;12.20;4.10;;;;;;;41.95;34.69;101102.91;5075193;28;20806;-83
2023/05/07 09:19:03;;;;;;;12.70;4.40;;;;;;;42.01;35.08;101113.28;5073181;28;20426;-82
2023/05/07 09:21:30;;;;;;;14.67;4.10;;;;;;;42.06;34.20;101110.38;5086185;28;20842;-80
2023/05/07 09:23:56;;;;;;;16.83;5.77;;;;;;;42.10;34.39;101111.31;5074102;28;20380;-80
2023/05/07 09:26:23;;;;;;;10.73;4.43;;;;;;;42.04;34.30;101117.28;5091675;28;20424;-82
2023/05/07 09:28:50;;;;;;;12.90;3.80;;;;;;;42.04;33.92;101122.72;5091431;28;20466;-83
2023/05/07 09:31:16;;;;;;;12.70;4.10;;;;;;;42.12;33.41;101130.06;5075435;28;20516;-82
2023/05/07 09:33:44;;;;;;;11.27;4.30;;;;;;;42.06;33.63;101123.22;5081029;28;20426;-82
2023/05/07 09:36:12;;;;;;;9.93;3.87;;;;;;;42.10;33.90;101126.88;5082436;28;21101;-79
2023/05/07 09:38:45;;;;;;;7.73;2.67;;;;;;;42.16;33.55;101131.03;5090519;28;20477;-83
2023/05/07 09:41:13;;;;;;;27.73;5.27;;;;;;;42.08;34.12;101131.84;5092613;28;20762;-79
2023/05/07 09:43:41;;;;;;;14.00;3.80;;;;;;;42.08;33.79;101129.94;5091104;28;20436;-84
2023/05/07 09:46:12;;;;;;;16.40;3.67;;;;;;;42.06;33.20;101126.75;5091850;28;20971;-80
2023/05/07 09:48:40;;;;;;;10.60;3.10;;;;;;;42.08;33.19;101126.41;5091470;28;20954;-80
2023/05/07 09:51:47;;;;;;;10.90;2.67;;;;;;;42.19;33.16;101132.31;5091643;28;20432;-79
2023/05/07 09:54:15;;;;;;;8.97;3.43;;;;;;;42.25;33.17;101131.00;5092074;28;20456;-79
2023/05/07 09:56:43;;;;;;;10.40;3.67;;;;;;;42.17;33.98;101123.66;5091575;28;20433;-80
2023/05/07 09:59:13;;;;;;;9.70;3.63;;;;;;;42.21;33.41;101130.84;5090774;28;20432;-85
2023/05/07 10:01:41;;;;;;;17.27;3.20;;;;;;;42.25;33.28;101128.28;5090999;28;20417;-85
2023/05/07 10:04:08;;;;;;;9.13;2.60;;;;;;;42.24;32.62;101124.75;5090016;28;20774;-80
2023/05/07 10:06:38;;;;;;;11.87;5.40;;;;;;;42.30;32.52;101128.09;5082720;28;20444;-85
2023/05/07 10:09:08;;;;;;;9.37;2.67;;;;;;;42.30;32.36;101128.09;5088176;28;20516;-86
2023/05/07 10:11:37;;;;;;;9.40;3.67;;;;;;;42.31;32.51;101138.66;5082547;28;20447;-85
2023/05/07 10:14:05;;;;;;;14.13;2.77;;;;;;;42.35;32.71;101134.13;5091646;28;20462;-85
2023/05/07 10:16:37;;;;;;;10.37;2.90;;;;;;;42.32;32.78;101136.72;5090818;28;20421;-78
2023/05/07 10:19:09;;;;;;;15.93;4.90;;;;;;;42.33;32.79;101132.84;5091824;28;20427;-79
2023/05/07 10:21:45;;;;;;;15.33;5.97;;;;;;;42.30;33.15;101137.06;5089928;28;20449;-78
2023/05/07 10:24:23;;;;;;;15.00;3.20;;;;;;;42.31;32.67;101138.66;5091137;28;20486;-79
2023/05/07 10:26:54;;;;;;;12.03;3.60;;;;;;;42.32;32.57;101142.16;5090814;28;20903;-79
2023/05/07 10:29:53;;;;;;;9.73;3.03;;;;;;;42.41;32.87;101145.63;5091180;28;20459;-79
2023/05/07 10:32:39;;;;;;;11.40;3.10;;;;;;;42.43;32.69;101134.41;5092246;28;20419;-79
2023/05/07 10:35:15;;;;;;;11.00;3.03;;;;;;;42.48;32.58;101131.47;5090297;28;20508;-79
2023/05/07 10:37:41;;;;;;;8.67;2.90;;;;;;;42.38;32.76;101129.94;5079960;22;21066;-82
2023/05/07 10:40:10;;;;;;;11.83;3.10;;;;;;;42.44;32.84;101133.28;5014452;28;20446;-78
2023/05/07 10:42:37;;;;;;;14.07;3.30;;;;;;;42.53;33.26;101139.44;5030560;28;20888;-81
2023/05/07 10:45:16;;;;;;;10.00;3.10;;;;;;;42.43;33.07;101137.13;5041283;28;20423;-84
2023/05/07 10:48:19;;;;;;;8.33;2.93;;;;;;;42.49;33.17;101135.81;5040649;28;20423;-79
2023/05/07 10:50:47;;;;;;;8.70;3.30;;;;;;;42.49;33.15;101141.25;5034808;28;20504;-79
2023/05/07 10:53:25;;;;;;;8.37;3.13;;;;;;;42.51;33.53;101137.06;5039384;28;20462;-80
2023/05/07 10:56:17;;;;;;;12.73;3.50;;;;;;;42.44;33.16;101142.25;5032082;28;20455;-78
2023/05/07 10:58:43;;;;;;;13.67;3.90;;;;;;;42.58;33.27;101140.09;5030329;28;20423;-78
2023/05/07 11:01:12;;;;;;;9.90;3.10;;;;;;;42.61;32.85;101138.63;5050331;28;20425;-81
2023/05/07 11:04:14;;;;;;;11.53;3.50;;;;;;;42.57;32.86;101137.66;5029710;28;20443;-83
2023/05/07 11:06:41;;;;;;;8.80;2.93;;;;;;;42.58;32.86;101140.09;5044644;28;20437;-80
2023/05/07 11:09:09;;;;;;;12.93;3.00;;;;;;;42.59;32.93;101129.97;5053983;28;20429;-80
2023/05/07 11:11:52;;;;;;;8.03;2.63;;;;;;;42.62;33.05;101143.75;5049714;28;20483;-79
2023/05/07 11:14:42;;;;;;;8.93;3.07;;;;;;;42.69;32.72;101132.31;5056157;28;20446;-80
2023/05/07 11:17:10;;;;;;;9.97;3.00;;;;;;;42.73;32.66;101130.53;5048166;28;20560;-80